createdAt,value
2022-08-21T00:00:28.324Z,19.40
2022-08-21T00:03:06.041Z,19.40
2022-08-21T00:05:38.273Z,19.40
2022-08-21T00:08:05.733Z,19.50
2022-08-21T00:10:33.085Z,19.60
2022-08-21T00:13:02.446Z,19.70
2022-08-21T00:15:31.515Z,19.60
2022-08-21T00:17:59.832Z,19.30
2022-08-21T00:20:27.373Z,19.10
2022-08-21T00:22:54.428Z,18.90
2022-08-21T00:25:24.982Z,18.80
2022-08-21T00:27:54.231Z,18.70
2022-08-21T00:30:23.670Z,18.80
2022-08-21T00:32:52.496Z,18.80
2022-08-21T00:35:22.783Z,18.80
2022-08-21T00:37:49.781Z,18.90
2022-08-21T00:40:20.768Z,18.90
2022-08-21T00:42:53.199Z,18.90
2022-08-21T00:45:22.776Z,19.00
2022-08-21T00:47:51.008Z,18.90
2022-08-21T00:50:22.147Z,18.90
2022-08-21T00:52:52.187Z,18.90
2022-08-21T00:55:19.581Z,18.80
2022-08-21T00:57:51.841Z,18.90
2022-08-21T01:00:24.110Z,18.90
2022-08-21T01:02:51.476Z,18.80
2022-08-21T01:05:18.517Z,18.90
2022-08-21T01:07:46.140Z,18.90
2022-08-21T01:10:24.171Z,18.80
2022-08-21T01:12:56.084Z,18.80
2022-08-21T01:15:25.524Z,19.00
2022-08-21T01:17:53.332Z,19.00
2022-08-21T01:20:20.581Z,19.10
2022-08-21T01:22:47.864Z,19.10
2022-08-21T01:25:18.178Z,19.10
2022-08-21T01:27:45.445Z,19.10
2022-08-21T01:30:21.710Z,19.10
2022-08-21T01:32:49.428Z,19.00
2022-08-21T01:35:18.096Z,19.00
2022-08-21T01:37:45.944Z,18.90
2022-08-21T01:40:14.461Z,18.70
2022-08-21T01:42:41.657Z,18.60
2022-08-21T01:45:09.862Z,18.50
2022-08-21T01:47:37.365Z,18.40
2022-08-21T01:50:07.887Z,18.40
2022-08-21T01:52:35.048Z,18.40
2022-08-21T01:55:02.222Z,18.30
2022-08-21T01:57:29.470Z,18.40
2022-08-21T01:59:56.505Z,18.40
2022-08-21T02:02:23.520Z,18.40
2022-08-21T02:04:50.497Z,18.40
2022-08-21T02:07:17.618Z,18.50
2022-08-21T02:09:44.573Z,18.40
2022-08-21T02:12:12.704Z,18.40
2022-08-21T02:14:39.855Z,18.40
2022-08-21T02:17:09.399Z,18.40
2022-08-21T02:19:40.777Z,18.30
2022-08-21T02:22:10.428Z,18.10
2022-08-21T02:24:38.554Z,18.00
2022-08-21T02:27:26.341Z,18.00
2022-08-21T02:29:55.382Z,18.10
2022-08-21T02:32:22.512Z,18.20
2022-08-21T02:34:49.947Z,18.30
2022-08-21T02:37:17.011Z,18.30
2022-08-21T02:39:44.301Z,18.30
2022-08-21T02:42:11.482Z,18.40
2022-08-21T02:44:38.505Z,18.20
2022-08-21T02:47:05.746Z,18.20
2022-08-21T02:49:32.732Z,18.20
2022-08-21T02:52:00.198Z,18.20
2022-08-21T02:54:27.250Z,18.10
2022-08-21T02:56:54.376Z,18.10
2022-08-21T02:59:21.425Z,18.10
2022-08-21T03:01:48.460Z,18.10
2022-08-21T03:04:15.617Z,18.20
2022-08-21T03:06:42.594Z,18.10
2022-08-21T03:09:09.623Z,18.00
2022-08-21T03:11:37.184Z,18.00
2022-08-21T03:14:06.266Z,18.00
2022-08-21T03:16:35.190Z,18.10
2022-08-21T03:19:03.755Z,18.20
2022-08-21T03:21:31.354Z,18.20
2022-08-21T03:23:58.320Z,18.20
2022-08-21T03:26:27.844Z,18.20
2022-08-21T03:28:56.954Z,18.10
2022-08-21T03:31:24.081Z,18.00
2022-08-21T03:33:51.955Z,18.00
2022-08-21T03:36:19.059Z,18.00
2022-08-21T03:38:46.468Z,18.10
2022-08-21T03:41:13.554Z,18.20
2022-08-21T03:43:40.632Z,18.30
2022-08-21T03:46:07.885Z,18.40
2022-08-21T03:48:36.326Z,18.50
2022-08-21T03:51:04.139Z,18.60
2022-08-21T03:53:31.352Z,18.60
2022-08-21T03:55:58.695Z,18.40
2022-08-21T03:58:28.423Z,18.30
2022-08-21T04:00:59.026Z,18.20
2022-08-21T04:03:27.325Z,18.00
2022-08-21T04:05:54.309Z,18.00
2022-08-21T04:08:21.386Z,18.00
2022-08-21T04:10:51.037Z,18.00
2022-08-21T04:13:18.085Z,17.90
2022-08-21T04:15:45.188Z,18.00
2022-08-21T04:18:12.538Z,17.90
2022-08-21T04:20:40.914Z,17.90
2022-08-21T04:23:08.248Z,18.00
2022-08-21T04:25:35.293Z,18.20
2022-08-21T04:28:03.124Z,18.30
2022-08-21T04:30:30.695Z,18.30
2022-08-21T04:32:59.333Z,18.40
2022-08-21T04:35:28.825Z,18.30
2022-08-21T04:37:56.044Z,18.40
2022-08-21T04:40:26.483Z,18.50
2022-08-21T04:42:58.058Z,18.60
2022-08-21T04:45:26.581Z,18.70
2022-08-21T04:47:55.629Z,18.50
2022-08-21T04:50:27.126Z,18.40
2022-08-21T04:53:06.088Z,18.40
2022-08-21T04:55:33.419Z,18.50
2022-08-21T04:58:01.158Z,18.60
2022-08-21T05:00:28.288Z,18.70
2022-08-21T05:03:00.124Z,18.80
2022-08-21T05:05:30.256Z,18.80
2022-08-21T05:07:59.787Z,18.70
2022-08-21T05:10:28.335Z,18.70
2022-08-21T05:12:56.548Z,18.80
2022-08-21T05:15:23.709Z,19.00
2022-08-21T05:17:52.362Z,19.10
2022-08-21T05:20:22.645Z,19.30
2022-08-21T05:22:49.715Z,19.40
2022-08-21T05:25:17.633Z,19.50
2022-08-21T05:27:49.464Z,19.60
2022-08-21T05:30:20.622Z,19.60
2022-08-21T05:32:48.657Z,19.60
2022-08-21T05:35:16.279Z,19.60
2022-08-21T05:37:43.385Z,19.60
2022-08-21T05:40:21.217Z,19.60
2022-08-21T05:42:54.017Z,19.60
2022-08-21T05:45:42.905Z,19.60
2022-08-21T05:48:21.168Z,19.50
2022-08-21T05:50:50.318Z,19.50
2022-08-21T05:53:18.993Z,19.60
2022-08-21T05:55:46.973Z,19.60
2022-08-21T05:58:19.844Z,19.60
2022-08-21T06:00:48.912Z,19.70
2022-08-21T06:03:26.542Z,19.70
2022-08-21T06:05:54.503Z,19.60
2022-08-21T06:08:22.512Z,19.70
2022-08-21T06:10:50.950Z,19.80
2022-08-21T06:13:20.570Z,19.90
2022-08-21T06:15:48.034Z,19.90
2022-08-21T06:18:15.577Z,19.60
2022-08-21T06:20:42.921Z,19.60
2022-08-21T06:23:09.960Z,19.70
2022-08-21T06:25:37.240Z,19.80
2022-08-21T06:28:09.833Z,19.70
2022-08-21T06:30:38.723Z,19.60
2022-08-21T06:33:07.085Z,19.50
2022-08-21T06:35:34.722Z,19.50
2022-08-21T06:38:02.019Z,19.40
2022-08-21T06:40:30.422Z,19.50
2022-08-21T06:43:10.880Z,19.70
2022-08-21T06:45:42.285Z,19.80
2022-08-21T06:48:09.342Z,20.10
2022-08-21T06:50:36.978Z,20.00
2022-08-21T06:53:07.523Z,20.10
2022-08-21T06:55:34.999Z,20.40
2022-08-21T06:58:02.364Z,20.50
2022-08-21T07:00:29.987Z,20.60
2022-08-21T07:02:57.356Z,20.60
2022-08-21T07:05:27.701Z,20.90
2022-08-21T07:07:54.820Z,20.90
2022-08-21T07:10:24.585Z,20.70
2022-08-21T07:13:00.026Z,20.60
2022-08-21T07:15:31.836Z,20.50
2022-08-21T07:18:00.462Z,20.40
2022-08-21T07:20:30.974Z,20.50
2022-08-21T07:23:00.763Z,20.70
2022-08-21T07:25:28.175Z,20.80
2022-08-21T07:27:55.810Z,20.60
2022-08-21T07:30:23.906Z,20.50
2022-08-21T07:32:51.037Z,20.40
2022-08-21T07:35:19.714Z,20.50
2022-08-21T07:37:47.092Z,20.70
2022-08-21T07:40:14.813Z,20.70
2022-08-21T07:42:43.542Z,20.80
2022-08-21T07:45:12.283Z,20.70
2022-08-21T07:47:42.061Z,20.70
2022-08-21T07:50:12.220Z,20.70
2022-08-21T07:52:40.958Z,20.70
2022-08-21T07:55:10.977Z,20.50
2022-08-21T07:57:38.585Z,20.50
2022-08-21T08:00:09.089Z,20.50
2022-08-21T08:02:42.301Z,20.60
2022-08-21T08:05:12.237Z,20.80
2022-08-21T08:07:39.950Z,20.80
2022-08-21T08:10:08.556Z,20.90
2022-08-21T08:12:36.694Z,20.70
2022-08-21T08:15:08.372Z,20.90
2022-08-21T08:17:35.588Z,20.90
2022-08-21T08:20:03.593Z,21.00
2022-08-21T08:22:31.062Z,21.20
2022-08-21T08:24:58.093Z,21.20
2022-08-21T08:27:25.315Z,21.20
2022-08-21T08:29:52.536Z,21.40
2022-08-21T08:32:21.071Z,21.40
2022-08-21T08:34:49.806Z,21.60
2022-08-21T08:37:17.549Z,21.70
2022-08-21T08:39:45.437Z,21.90
2022-08-21T08:42:33.119Z,22.00
2022-08-21T08:45:10.337Z,22.00
2022-08-21T08:47:47.672Z,22.20
2022-08-21T08:50:39.951Z,22.20
2022-08-21T08:53:18.394Z,22.10
2022-08-21T08:55:49.113Z,22.00
2022-08-21T08:58:40.946Z,21.90
2022-08-21T09:01:18.474Z,21.80
2022-08-21T09:03:51.031Z,21.80
2022-08-21T09:06:27.090Z,22.10
2022-08-21T09:08:57.169Z,22.20
2022-08-21T09:11:47.967Z,22.10
2022-08-21T09:14:27.308Z,22.10
2022-08-21T09:17:13.087Z,22.30
2022-08-21T09:20:06.685Z,22.00
2022-08-21T09:22:58.720Z,22.00
2022-08-21T09:25:31.862Z,22.30
2022-08-21T09:27:59.085Z,22.10
2022-08-21T09:30:31.975Z,22.10
2022-08-21T09:32:59.429Z,22.50
2022-08-21T09:35:27.210Z,22.50
2022-08-21T09:38:06.558Z,22.60
2022-08-21T09:40:40.028Z,22.60
2022-08-21T09:43:16.010Z,22.80
2022-08-21T09:45:44.698Z,22.80
2022-08-21T09:48:14.714Z,22.90
2022-08-21T09:50:43.332Z,22.90
2022-08-21T09:53:27.589Z,23.30
2022-08-21T09:56:24.399Z,23.40
2022-08-21T09:58:53.002Z,23.60
2022-08-21T10:01:23.817Z,23.60
2022-08-21T10:04:04.456Z,23.50
2022-08-21T10:06:31.591Z,23.60
2022-08-21T10:09:19.952Z,22.90
2022-08-21T10:12:11.559Z,23.00
2022-08-21T10:14:59.339Z,22.80
2022-08-21T10:17:44.414Z,22.90
2022-08-21T10:20:38.838Z,23.30
2022-08-21T10:23:17.567Z,23.50
2022-08-21T10:26:13.893Z,23.30
2022-08-21T10:29:05.830Z,23.30
2022-08-21T10:31:57.608Z,23.30
2022-08-21T10:34:35.546Z,23.60
2022-08-21T10:37:34.709Z,23.20
2022-08-21T10:40:13.940Z,23.50
2022-08-21T10:43:18.479Z,23.70
2022-08-21T10:46:07.316Z,24.00
2022-08-21T10:48:38.993Z,24.20
2022-08-21T10:51:34.891Z,23.80
2022-08-21T10:54:23.608Z,23.90
2022-08-21T10:56:58.387Z,23.40
2022-08-21T10:59:49.673Z,23.20
2022-08-21T11:02:23.108Z,23.30
2022-08-21T11:05:23.253Z,23.70
2022-08-21T11:07:55.945Z,23.70
2022-08-21T11:10:40.877Z,24.20
2022-08-21T11:13:38.605Z,23.90
2022-08-21T11:16:30.944Z,23.90
2022-08-21T11:19:27.028Z,23.90
2022-08-21T11:22:02.375Z,24.10
2022-08-21T11:24:35.678Z,24.40
2022-08-21T11:27:08.033Z,24.70
2022-08-21T11:29:39.301Z,24.90
2022-08-21T11:32:21.817Z,24.90
2022-08-21T11:34:58.350Z,25.30
2022-08-21T11:37:43.438Z,25.80
2022-08-21T11:40:38.551Z,26.30
2022-08-21T11:43:18.005Z,26.00
2022-08-21T11:45:53.146Z,26.00
2022-08-21T11:48:50.027Z,25.90
2022-08-21T11:51:31.309Z,26.40
2022-08-21T11:54:10.601Z,26.40
2022-08-21T11:56:51.419Z,26.60
2022-08-21T11:59:24.883Z,27.30
2022-08-21T12:01:54.194Z,28.00
2022-08-21T12:04:32.248Z,29.10
2022-08-21T12:07:13.270Z,28.60
2022-08-21T12:09:40.683Z,28.60
2022-08-21T12:12:26.331Z,29.90
2022-08-21T12:15:13.879Z,30.60
2022-08-21T12:17:51.442Z,31.20
2022-08-21T12:20:57.572Z,32.00
2022-08-21T12:23:31.741Z,33.00
2022-08-21T12:26:14.688Z,35.20
2022-08-21T12:28:42.151Z,35.40
2022-08-21T12:31:51.641Z,35.90
2022-08-21T12:34:19.373Z,32.60
2022-08-21T12:36:54.445Z,31.30
2022-08-21T12:39:26.689Z,34.50
2022-08-21T12:42:02.339Z,33.60
2022-08-21T12:44:43.805Z,33.40
2022-08-21T12:47:22.761Z,33.40
2022-08-21T12:49:57.722Z,33.20
2022-08-21T12:52:45.044Z,32.90
2022-08-21T12:55:18.029Z,30.70
2022-08-21T12:57:45.257Z,29.00
2022-08-21T13:00:15.244Z,29.20
2022-08-21T13:02:50.304Z,29.10
2022-08-21T13:05:36.676Z,29.10
2022-08-21T13:08:10.848Z,28.40
2022-08-21T13:10:40.118Z,27.60
2022-08-21T13:13:24.909Z,27.10
2022-08-21T13:16:08.054Z,27.20
2022-08-21T13:18:40.281Z,28.20
2022-08-21T13:21:16.361Z,27.90
2022-08-21T13:23:45.029Z,27.80
2022-08-21T13:26:22.975Z,28.70
2022-08-21T13:28:51.447Z,27.60
2022-08-21T13:31:29.050Z,27.20
2022-08-21T13:33:56.673Z,27.60
2022-08-21T13:36:35.142Z,28.20
2022-08-21T13:39:05.596Z,29.20
2022-08-21T13:41:38.454Z,32.10
2022-08-21T13:44:20.489Z,33.60
2022-08-21T13:46:49.591Z,33.40
2022-08-21T13:49:20.266Z,33.50
2022-08-21T13:51:49.030Z,32.70
2022-08-21T13:54:35.944Z,32.40
2022-08-21T13:57:03.210Z,33.30
2022-08-21T13:59:35.853Z,34.30
2022-08-21T14:02:14.791Z,36.30
2022-08-21T14:04:53.086Z,36.70
2022-08-21T14:07:30.613Z,35.80
2022-08-21T14:10:01.078Z,34.10
2022-08-21T14:12:32.576Z,33.20
2022-08-21T14:15:04.043Z,32.10
2022-08-21T14:17:38.556Z,31.80
2022-08-21T14:20:08.553Z,30.50
2022-08-21T14:22:45.799Z,29.70
2022-08-21T14:25:30.165Z,29.30
2022-08-21T14:28:09.681Z,29.50
2022-08-21T14:30:41.535Z,29.70
2022-08-21T14:33:13.497Z,29.70
2022-08-21T14:35:41.371Z,29.30
2022-08-21T14:38:20.412Z,28.10
2022-08-21T14:40:56.972Z,28.30
2022-08-21T14:43:26.071Z,27.60
2022-08-21T14:45:53.165Z,28.30
2022-08-21T14:48:20.496Z,28.40
2022-08-21T14:50:48.392Z,28.50
2022-08-21T14:53:15.631Z,29.30
2022-08-21T14:56:01.227Z,29.20
2022-08-21T14:58:28.380Z,30.20
2022-08-21T15:00:57.389Z,30.00
2022-08-21T15:03:25.456Z,29.10
2022-08-21T15:05:52.695Z,29.30
2022-08-21T15:08:19.948Z,28.80
2022-08-21T15:11:10.615Z,29.10
2022-08-21T15:13:34.910Z,29.70
2022-08-21T15:16:02.326Z,30.90
2022-08-21T15:18:30.829Z,31.00
2022-08-21T15:20:58.440Z,31.00
2022-08-21T15:23:25.969Z,31.50
2022-08-21T15:25:54.347Z,32.50
2022-08-21T15:28:22.218Z,33.20
2022-08-21T15:30:49.971Z,33.50
2022-08-21T15:33:17.803Z,33.80
2022-08-21T15:35:46.013Z,33.30
2022-08-21T15:38:14.083Z,32.70
2022-08-21T15:40:51.795Z,32.60
2022-08-21T15:43:30.642Z,33.00
2022-08-21T15:46:00.699Z,31.80
2022-08-21T15:48:28.365Z,30.50
2022-08-21T15:50:55.434Z,30.60
2022-08-21T15:53:22.560Z,30.30
2022-08-21T15:55:49.678Z,29.80
2022-08-21T15:58:17.861Z,29.20
2022-08-21T16:00:47.757Z,28.70
2022-08-21T16:03:17.940Z,28.20
2022-08-21T16:05:45.764Z,27.90
2022-08-21T16:08:13.004Z,27.80
2022-08-21T16:10:41.209Z,27.40
2022-08-21T16:13:17.596Z,26.80
2022-08-21T16:15:44.726Z,26.30
2022-08-21T16:18:12.181Z,26.10
2022-08-21T16:20:39.359Z,25.90
2022-08-21T16:23:06.599Z,25.60
2022-08-21T16:25:37.858Z,25.60
2022-08-21T16:28:09.378Z,26.00
2022-08-21T16:30:39.507Z,26.40
2022-08-21T16:33:08.590Z,27.10
2022-08-21T16:35:35.999Z,27.30
2022-08-21T16:38:03.317Z,28.50
2022-08-21T16:40:30.501Z,29.00
2022-08-21T16:42:57.943Z,28.70
2022-08-21T16:45:27.810Z,27.90
2022-08-21T16:47:57.067Z,27.60
2022-08-21T16:50:25.869Z,27.10
2022-08-21T16:52:53.270Z,26.70
2022-08-21T16:55:20.693Z,26.20
2022-08-21T16:57:47.830Z,25.40
2022-08-21T17:00:15.778Z,24.90
2022-08-21T17:02:49.474Z,25.40
2022-08-21T17:05:17.164Z,26.60
2022-08-21T17:07:44.526Z,28.20
2022-08-21T17:10:13.860Z,29.20
2022-08-21T17:12:43.850Z,29.90
2022-08-21T17:15:21.299Z,29.90
2022-08-21T17:17:49.340Z,30.10
2022-08-21T17:20:16.839Z,29.70
2022-08-21T17:22:43.954Z,29.20
2022-08-21T17:25:11.321Z,27.60
2022-08-21T17:27:40.027Z,26.50
2022-08-21T17:30:08.310Z,25.60
2022-08-21T17:32:35.432Z,24.80
2022-08-21T17:35:03.093Z,24.50
2022-08-21T17:37:30.202Z,24.10
2022-08-21T17:39:57.870Z,23.80
2022-08-21T17:42:25.370Z,23.60
2022-08-21T17:44:52.654Z,23.40
2022-08-21T17:47:19.903Z,23.10
2022-08-21T17:49:47.869Z,23.00
2022-08-21T17:52:15.112Z,22.70
2022-08-21T17:54:42.373Z,22.50
2022-08-21T17:57:17.543Z,22.40
2022-08-21T17:59:45.238Z,22.20
2022-08-21T18:02:20.166Z,21.90
2022-08-21T18:04:50.471Z,21.60
2022-08-21T18:07:32.081Z,21.40
2022-08-21T18:10:02.301Z,21.30
2022-08-21T18:12:29.975Z,21.10
2022-08-21T18:14:57.114Z,21.00
2022-08-21T18:17:28.587Z,20.80
2022-08-21T18:19:55.869Z,20.70
2022-08-21T18:22:23.068Z,20.50
2022-08-21T18:24:50.114Z,20.30
2022-08-21T18:27:18.181Z,20.30
2022-08-21T18:29:47.367Z,20.10
2022-08-21T18:32:29.652Z,19.90
2022-08-21T18:35:00.071Z,19.80
2022-08-21T18:37:27.339Z,19.70
2022-08-21T18:39:54.497Z,19.60
2022-08-21T18:42:28.592Z,19.50
2022-08-21T18:45:00.832Z,19.40
2022-08-21T18:47:37.279Z,19.30
2022-08-21T18:50:11.001Z,19.20
2022-08-21T18:52:39.893Z,19.10
2022-08-21T18:55:20.938Z,19.10
2022-08-21T18:57:48.125Z,19.00
2022-08-21T19:00:20.591Z,19.00
2022-08-21T19:02:47.870Z,18.90
2022-08-21T19:05:18.442Z,18.80
2022-08-21T19:07:45.889Z,18.70
2022-08-21T19:10:28.260Z,18.70
2022-08-21T19:12:59.788Z,18.60
2022-08-21T19:18:17.597Z,18.50
2022-08-21T19:20:47.353Z,18.40
2022-08-21T19:23:15.866Z,18.40
2022-08-21T19:25:51.810Z,18.20
2022-08-21T19:28:35.594Z,18.20
2022-08-21T19:31:16.379Z,18.10
2022-08-21T19:33:50.764Z,17.90
2022-08-21T19:36:18.931Z,17.80
2022-08-21T19:38:46.971Z,17.80
2022-08-21T19:41:16.778Z,17.60
2022-08-21T19:43:47.575Z,17.60
2022-08-21T19:46:24.341Z,17.50
2022-08-21T19:48:53.710Z,17.40
2022-08-21T19:51:21.772Z,17.30
2022-08-21T19:53:53.793Z,17.30
2022-08-21T19:56:28.209Z,17.30
2022-08-21T19:58:55.925Z,17.30
2022-08-21T20:01:25.701Z,17.20
2022-08-21T20:03:54.684Z,17.20
2022-08-21T20:06:24.000Z,17.20
2022-08-21T20:08:53.179Z,17.10
2022-08-21T20:11:31.846Z,17.10
2022-08-21T20:14:00.633Z,17.00
2022-08-21T20:16:29.043Z,17.00
2022-08-21T20:18:56.317Z,17.00
2022-08-21T20:21:23.371Z,16.90
2022-08-21T20:23:50.515Z,16.80
2022-08-21T20:26:19.294Z,16.80
2022-08-21T20:28:50.462Z,16.70
2022-08-21T20:31:19.121Z,16.70
2022-08-21T20:33:49.562Z,16.70
2022-08-21T20:36:17.813Z,16.60
2022-08-21T20:38:45.006Z,16.70
2022-08-21T20:41:18.006Z,16.60
2022-08-21T20:43:50.168Z,16.60
2022-08-21T20:46:21.605Z,16.60
2022-08-21T20:48:49.944Z,16.50
2022-08-21T20:51:23.562Z,16.50
2022-08-21T20:54:14.947Z,16.50
2022-08-21T21:00:05.343Z,16.50
2022-08-21T21:02:55.909Z,16.40
2022-08-21T21:05:52.381Z,16.40
2022-08-21T21:08:27.866Z,16.30
2022-08-21T21:11:08.271Z,16.30
2022-08-21T21:13:43.639Z,16.30
2022-08-21T21:16:34.082Z,16.20
2022-08-21T21:19:06.185Z,16.20
2022-08-21T21:21:51.294Z,16.10
2022-08-21T21:24:51.369Z,16.10
2022-08-21T21:27:35.116Z,16.10
2022-08-21T21:30:27.194Z,16.10
2022-08-21T21:32:54.317Z,16.00
2022-08-21T21:35:33.199Z,15.90
2022-08-21T21:38:09.982Z,15.90
2022-08-21T21:40:57.229Z,15.90
2022-08-21T21:43:37.045Z,15.80
2022-08-21T21:46:18.716Z,15.80
2022-08-21T21:48:56.375Z,15.80
2022-08-21T21:51:26.455Z,15.80
2022-08-21T21:54:14.509Z,15.70
2022-08-21T21:56:46.498Z,15.70
2022-08-21T21:59:29.768Z,15.70
2022-08-21T22:03:07.870Z,15.70
2022-08-21T22:05:44.181Z,15.60
2022-08-21T22:08:30.259Z,15.60
2022-08-21T22:11:08.697Z,15.60
2022-08-21T22:14:18.792Z,15.60
2022-08-21T22:16:50.900Z,15.50
2022-08-21T22:19:34.827Z,15.50
2022-08-21T22:22:24.038Z,15.50
2022-08-21T22:24:57.388Z,15.40
2022-08-21T22:27:34.067Z,15.50
2022-08-21T22:30:06.004Z,15.50
2022-08-21T22:32:56.767Z,15.50
2022-08-21T22:35:26.630Z,15.50
2022-08-21T22:37:56.756Z,15.50
2022-08-21T22:40:31.049Z,15.50
2022-08-21T22:43:07.336Z,15.50
2022-08-21T22:48:59.653Z,15.40
2022-08-21T22:51:32.350Z,15.40
2022-08-21T22:54:00.239Z,15.20
2022-08-21T22:56:38.600Z,15.20
2022-08-21T22:59:18.526Z,15.20
2022-08-21T23:01:45.719Z,15.30
2022-08-21T23:04:23.003Z,15.30
2022-08-21T23:06:55.282Z,15.20
2022-08-21T23:09:28.364Z,15.30
2022-08-21T23:11:58.412Z,15.30
2022-08-21T23:14:26.189Z,15.20
2022-08-21T23:17:01.935Z,15.20
2022-08-21T23:19:49.906Z,15.10
2022-08-21T23:22:32.501Z,15.00
2022-08-21T23:25:15.543Z,15.00
2022-08-21T23:28:28.652Z,15.00
2022-08-21T23:31:15.827Z,15.00
2022-08-21T23:34:05.969Z,14.90
2022-08-21T23:37:18.496Z,15.00
2022-08-21T23:40:21.221Z,15.10
2022-08-21T23:43:11.611Z,15.00
2022-08-21T23:46:17.621Z,14.90
2022-08-21T23:49:26.940Z,15.00
2022-08-21T23:52:11.668Z,15.00
2022-08-21T23:54:58.635Z,15.00
2022-08-21T23:57:44.692Z,15.00
